This is the latest recevied weather packets stored in our database for station/object DG9VH-13. If no packets are shown the sender has not sent any weather packets the latest 10 day(s).
| Time | Temp. | Humidity | Pressure | Rain* | Wind** | Luminosity | Snow |
|---|---|---|---|---|---|---|---|
| 1788597002 | 22.22° C | 55% | 1005.9 hPa | - | - | - | - |
| 1788596401 | 22.78° C | 53% | 1005.8 hPa | - | - | - | - |
| 1788595801 | 25.56° C | 47% | 1005.6 hPa | - | - | - | - |
| 1788595202 | 25° C | 49% | 1005.5 hPa | - | - | - | - |
| 1788594605 | 26.11° C | 47% | 1005.9 hPa | - | - | - | - |
| 1788594003 | 27.78° C | 44% | 1005.9 hPa | - | - | - | - |
| 1788593402 | 23.89° C | 55% | 1007.1 hPa | - | - | - | - |
| 1788592819 | 23.89° C | 53% | 1005 hPa | - | - | - | - |
| 1788592201 | 28.33° C | 47% | 1007.4 hPa | - | - | - | - |
| 1788591602 | 30° C | 45% | 1010.8 hPa | - | - | - | - |
| 1788591001 | 27.78° C | 50% | 1012.1 hPa | - | - | - | - |
| 1788590401 | 23.89° C | 60% | 1006.9 hPa | - | - | - | - |
| 1788589802 | 22.22° C | 65% | 1003.1 hPa | - | - | - | - |
| 1788589200 | 20.56° C | 70% | 1004.4 hPa | - | - | - | - |
| 1788588602 | 20° C | 72% | 1004.3 hPa | - | - | - | - |
| 1788588003 | 20° C | 72% | 1004.2 hPa | - | - | - | - |
| 1788587402 | 20° C | 73% | 1004.2 hPa | - | - | - | - |
| 1788586801 | 20° C | 73% | 1004.1 hPa | - | - | - | - |
| 1788586203 | 20° C | 73% | 1003.7 hPa | - | - | - | - |
| 1788585601 | 20° C | 73% | 1003.7 hPa | - | - | - | - |
| 1788585001 | 20° C | 72% | 1003.4 hPa | - | - | - | - |
| 1788584401 | 20° C | 73% | 1003.3 hPa | - | - | - | - |
| 1788583802 | 20° C | 72% | 1003.3 hPa | - | - | - | - |
| 1788583202 | 20° C | 72% | 1003 hPa | - | - | - | - |
| 1788582601 | 20° C | 73% | 1003 hPa | - | - | - | - |
* Rain since midnight (hover to see other rain measurements)
** Current wind speed in m/s (hover to see current wind gust speed)